Latest Weather Observations for Fitzroy Crossing

IDW60801

Issued at 11:02 pm WST Monday 22 December 2014 (issued every 30 minutes, with the page automatically refreshed every 10 minutes)

About weather observations | Map of weather stations | Latest weather observations for WA | Other Formats
Station Details ID: 003093 Name: FITZROY CROSSING AERO Lat: -18.18 Lon: 125.56 Height: 114.5 m
Data from the previous 72 hours. | See also: Recent months at Fitzroy Crossing
Date/Time
WST
Temp
°C
App
Temp
°C
Dew
Point
Rel
Hum
%
Delta-T
°C
Wind Press
QNH
hPa
Press
MSL
hPa
Rain
since 9 am
mm
Dir
 
Spd
km/h
Gust
km/h
Spd
kts
Gust
kts
22/11:00pm 28.0 32.7 22.7 73 3.6 ENE 2 7 1 4 1007.7 1006.7 0.0
22/10:30pm 28.3 32.1 22.8 72 3.8 ESE 7 11 4 6 1007.8 1006.8 0.0
22/10:00pm 28.7 32.2 22.9 71 4.0 SE 9 13 5 7 1007.7 1006.7 0.0
22/09:30pm 28.9 33.0 22.9 70 4.1 SE 6 9 3 5 1007.7 1006.7 0.0
22/09:00pm 29.2 32.6 22.7 68 4.5 E 9 13 5 7 1007.8 1006.8 0.0
22/08:30pm 30.1 34.0 22.5 63 5.2 NE 6 11 3 6 1007.6 1006.6 0.0
22/08:00pm 30.6 34.5 23.0 64 5.2 NNW 7 9 4 5 1007.2 1006.2 0.0
22/07:30pm 31.1 34.3 22.4 60 6.0 N 9 13 5 7 1006.6 1005.6 0.0
22/07:00pm 32.4 35.3 22.5 56 6.8 SW 11 13 6 7 1006.5 1005.5 0.0
22/06:30pm 32.7 34.7 22.2 54 7.2 SW 15 19 8 10 1006.1 1005.1 0.0
22/06:00pm 33.5 35.4 21.3 48 8.3 SW 13 17 7 9 1005.7 1004.7 0.0
22/05:30pm 34.9 37.9 21.2 45 9.3 W 7 17 4 9 1005.1 1004.1 0.0
22/05:00pm 34.7 36.1 21.0 44 9.3 W 15 20 8 11 1004.8 1003.8 0.0
22/04:30pm 35.0 38.2 21.3 45 9.3 W 6 11 3 6 1004.6 1003.7 0.0
22/04:00pm 34.2 36.5 21.3 47 8.8 WNW 11 20 6 11 1004.8 1003.8 0.0
22/03:30pm 34.8 35.2 20.7 43 9.5 W 19 28 10 15 1004.8 1003.8 0.0
22/03:00pm 35.2 37.7 21.8 45 9.2 WNW 11 19 6 10 1005.1 1004.1 0.0
22/02:30pm 34.0 35.8 21.8 49 8.3 NW 15 19 8 10 1005.5 1004.5 0.0
22/02:00pm 34.0 37.2 23.1 53 7.6 WSW 11 20 6 11 1006.1 1005.1 0.0
22/01:30pm 33.3 37.9 22.4 52 7.5 SW 2 11 1 6 1006.5 1005.5 0.0
22/01:00pm 32.5 36.2 22.6 56 6.8 SSE 7 15 4 8 1007.2 1006.2 0.0
22/12:30pm 32.4 36.3 22.5 56 6.8 SW 6 11 3 6 1007.6 1006.6 0.0
22/12:00pm 31.4 34.6 22.4 59 6.2 SSW 9 15 5 8 1008.1 1007.1 0.0
22/11:30am 31.0 35.5 22.3 60 5.9 WSW 2 6 1 3 1008.6 1007.7 0.0
22/11:00am 30.8 35.2 22.1 59 5.9 ESE 2 7 1 4 1008.9 1008.0 0.0
22/10:30am 30.7 33.9 22.3 61 5.7 SSE 9 15 5 8 1009.1 1008.2 0.0
22/10:00am 30.1 33.3 23.0 65 4.9 S 11 19 6 10 1009.3 1008.4 0.0
22/09:30am 30.1 33.1 23.3 67 4.7 SSW 13 20 7 11 1009.4 1008.5 0.0
22/09:00am 29.8 33.0 23.0 67 4.7 SSW 11 17 6 9 1010.0 1009.1 0.0
22/08:30am 29.4 33.7 23.3 69 4.2 SE 6 9 3 5 1010.3 1009.4 0.0
22/08:00am 27.8 31.4 23.0 75 3.3 SSE 9 13 5 7 1010.1 1009.2 0.0
22/07:30am 27.0 32.3 23.0 79 2.7 CALM 0 9 0 5 1009.8 1008.9 0.0
22/07:00am 25.9 30.6 23.4 86 1.7 SSW 4 9 2 5 1009.5 1008.6 0.0
22/06:30am 25.2 30.4 22.9 87 1.6 CALM 0 0 0 0 1009.5 1008.6 0.0
22/06:00am 24.9 30.2 23.0 89 1.3 CALM 0 0 0 0 1009.0 1008.1 0.0
22/05:30am 24.6 27.6 22.7 89 1.3 SW 11 15 6 8 1008.8 1007.9 0.0
22/05:00am 24.6 26.4 22.5 88 1.4 SSW 17 22 9 12 1008.3 1007.3 0.0
22/04:30am 24.8 26.6 22.5 87 1.6 SSW 17 20 9 11 1008.1 1007.1 0.0
22/04:00am 25.3 27.1 22.6 85 1.8 SSW 17 20 9 11 1008.0 1007.0 0.0
22/03:30am 25.6 28.0 22.9 85 1.8 S 15 22 8 12 1007.9 1006.9 0.0
22/03:00am 25.5 27.3 22.6 84 2.0 S 17 24 9 13 1007.9 1006.9 0.0
22/02:30am 26.0 28.0 22.9 83 2.1 SSW 17 24 9 13 1007.7 1006.7 0.0
22/02:00am 26.8 28.9 23.1 80 2.5 SSW 17 26 9 14 1007.7 1006.7 0.0
22/01:30am 26.6 32.4 23.9 85 1.9 CALM 0 15 0 8 1007.2 1006.2 0.0
22/01:00am 26.7 32.3 23.6 83 2.1 CALM 0 0 0 0 1007.0 1006.0 0.0
22/12:30am 26.7 32.3 23.6 83 2.1 CALM 0 0 0 0 1007.1 1006.1 0.0
22/12:00am 26.6 31.7 23.3 82 2.3 N 2 7 1 4 1006.9 1005.9 0.0
 
Date/Time
WST
Temp
°C
App
Temp
°C
Dew
Point
Rel
Hum
%
Delta-T
°C
Wind Press
QNH
hPa
Press
MSL
hPa
Rain
since 9 am
mm
Dir
 
Spd
km/h
Gust
km/h
Spd
kts
Gust
kts
21/11:30pm 26.5 30.4 23.0 81 2.4 N 7 7 4 4 1007.3 1006.3 0.0
21/11:00pm 26.9 30.2 22.5 77 3.0 NE 9 11 5 6 1007.7 1006.7 0.0
21/10:30pm 27.2 30.4 22.4 75 3.3 ENE 9 11 5 6 1007.6 1006.6 0.0
21/10:00pm 27.6 30.3 22.1 72 3.7 NE 11 15 6 8 1007.8 1006.8 0.0
21/09:30pm 27.6 30.8 22.3 73 3.6 ENE 9 13 5 7 1007.9 1006.9 0.0
21/09:00pm 27.7 30.8 22.9 75 3.3 NE 11 15 6 8 1007.9 1006.9 0.0
21/08:30pm 27.8 31.0 23.0 75 3.3 NE 11 13 6 7 1007.7 1006.7 0.0
21/08:00pm 28.4 31.6 23.1 73 3.6 ENE 11 15 6 8 1007.8 1006.8 0.0
21/07:30pm 28.5 32.9 24.5 79 2.8 ESE 9 11 5 6 1007.5 1006.5 0.0
21/07:00pm 28.7 32.1 24.0 76 3.3 NE 13 24 7 13 1007.1 1006.1 0.0
21/06:30pm 28.2 33.2 24.8 82 2.4 WNW 7 9 4 5 1006.4 1005.4 0.0
21/06:00pm 28.3 32.7 24.5 80 2.7 NW 9 11 5 6 1006.4 1005.4 0.0
21/05:30pm 28.2 31.7 24.2 79 2.8 NNW 13 17 7 9 1006.2 1005.2 0.0
21/05:00pm 28.6 32.2 24.4 78 2.9 NNW 13 17 7 9 1006.0 1005.0 0.0
21/04:30pm 28.6 31.0 23.7 75 3.4 NNW 17 19 9 10 1005.7 1004.7 0.0
21/04:00pm 28.4 31.0 23.3 74 3.5 NW 15 19 8 10 1005.7 1004.7 0.0
21/03:30pm 28.6 30.5 22.8 71 4.0 WNW 17 26 9 14 1006.0 1005.0 0.0
21/03:00pm 29.7 32.1 23.6 69 4.2 WNW 17 24 9 13 1006.1 1005.1 0.0
21/02:30pm 32.0 36.3 21.2 52 7.3 CALM 0 0 0 0 1006.2 1005.2 0.0
21/02:00pm 32.1 36.4 21.9 54 7.0 SSW 2 7 1 4 1006.7 1005.7 0.0
21/01:30pm 32.3 35.0 22.1 55 7.0 SSE 11 17 6 9 1006.9 1005.9 0.0
21/01:00pm 31.8 33.7 22.8 59 6.2 SSE 17 24 9 13 1006.8 1005.8 0.0
21/12:30pm 32.6 35.2 23.3 58 6.5 SSE 15 22 8 12 1007.8 1006.8 0.0
21/12:00pm 31.7 33.6 23.5 62 5.7 SSE 19 28 10 15 1008.3 1007.3 0.0
21/11:30am 32.5 36.2 24.5 62 5.6 SSW 13 20 7 11 1009.1 1008.2 0.0
21/11:00am 31.5 35.6 24.6 67 4.9 SE 11 17 6 9 1009.7 1008.8 0.0
21/10:30am 30.1 32.0 22.8 65 5.0 SSW 17 20 9 11 1010.2 1009.3 0.0
21/10:00am 29.9 33.5 24.3 72 3.9 SSW 13 17 7 9 1010.3 1009.4 0.0
21/09:30am 29.5 32.6 24.1 72 3.8 SW 15 20 8 11 1010.1 1009.2 0.0
21/09:00am 29.1 32.6 24.2 75 3.4 WSW 13 17 7 9 1010.2 1009.3 0.2
21/08:30am 29.0 33.6 24.8 78 2.9 W 9 13 5 7 1010.1 1009.2 0.2
21/08:00am 28.4 33.0 24.8 81 2.5 WSW 9 11 5 6 1010.2 1009.3 0.2
21/07:30am 28.0 32.9 24.6 82 2.4 W 7 9 4 5 1010.0 1009.1 0.2
21/07:00am 27.5 32.2 24.3 83 2.2 WNW 7 9 4 5 1009.9 1009.0 0.2
21/06:30am 27.1 31.6 24.6 86 1.7 NW 9 11 5 6 1009.6 1008.7 0.2
21/06:00am 26.7 31.5 24.5 88 1.5 NNW 7 9 4 5 1009.4 1008.5 0.2
21/05:30am 26.5 32.5 24.3 88 1.5 CALM 0 0 0 0 1009.0 1008.1 0.2
21/05:00am 26.6 32.4 23.9 85 1.9 CALM 0 0 0 0 1008.7 1007.8 0.2
21/04:30am 26.6 31.3 23.9 85 1.9 SSW 6 7 3 4 1008.2 1007.2 0.2
21/04:00am 26.7 31.4 24.0 85 1.9 S 6 7 3 4 1007.7 1006.7 0.2
21/03:30am 26.8 31.2 24.5 87 1.6 SSW 9 13 5 7 1007.5 1006.5 0.2
21/03:00am 27.0 31.5 24.6 87 1.7 SSW 9 11 5 6 1007.4 1006.4 0.2
21/02:30am 27.1 32.7 24.9 88 1.5 SW 4 7 2 4 1007.6 1006.6 0.2
21/02:00am 27.0 33.1 24.5 86 1.7 CALM 0 0 0 0 1007.3 1006.3 0.2
21/01:30am 27.1 33.4 24.7 87 1.7 CALM 0 0 0 0 1007.2 1006.2 0.2
21/01:00am 27.3 33.4 24.4 84 2.0 CALM 0 0 0 0 1007.6 1006.6 0.2
21/12:30am 27.4 33.4 24.3 83 2.2 CALM 0 0 0 0 1007.8 1006.8 0.2
21/12:00am 27.3 33.4 24.4 84 2.0 CALM 0 0 0 0 1007.8 1006.8 0.2
 
Date/Time
WST
Temp
°C
App
Temp
°C
Dew
Point
Rel
Hum
%
Delta-T
°C
Wind Press
QNH
hPa
Press
MSL
hPa
Rain
since 9 am
mm
Dir
 
Spd
km/h
Gust
km/h
Spd
kts
Gust
kts
20/11:30pm 27.5 32.0 23.7 80 2.6 N 6 7 3 4 1008.2 1007.2 0.2
20/11:00pm 28.1 31.8 23.2 74 3.4 NNE 9 13 5 7 1008.3 1007.3 0.2
20/10:30pm 28.1 32.3 23.5 76 3.2 N 7 11 4 6 1008.5 1007.6 0.2
20/10:00pm 28.3 31.5 23.0 73 3.6 NNE 11 15 6 8 1008.8 1007.9 0.2
20/09:30pm 28.2 31.7 22.9 73 3.6 ENE 9 11 5 6 1008.8 1007.9 0.2
20/09:00pm 28.4 31.3 22.4 70 4.1 NE 11 13 6 7 1009.0 1008.1 0.2
20/08:30pm 28.6 31.0 22.3 68 4.3 ENE 13 17 7 9 1008.8 1007.9 0.2
20/08:00pm 28.6 32.7 23.9 75 3.3 ENE 9 11 5 6 1008.2 1007.2 0.2
20/07:30pm 28.9 33.2 23.6 73 3.7 S 7 9 4 5 1007.5 1006.5 0.2
20/07:00pm 29.3 32.7 23.3 70 4.1 SSE 11 15 6 8 1007.3 1006.3 0.2
20/06:30pm 29.7 33.2 22.9 67 4.7 SSE 9 13 5 7 1007.3 1006.3 0.2
20/06:00pm 30.3 32.9 22.7 64 5.2 SE 13 17 7 9 1007.4 1006.4 0.2
20/05:30pm 31.1 34.3 23.0 62 5.6 SE 11 15 6 8 1007.5 1006.5 0.2
20/05:00pm 31.2 33.0 22.5 60 6.0 SE 17 22 9 12 1007.6 1006.6 0.2
20/04:30pm 31.8 33.2 22.5 58 6.4 S 19 24 10 13 1007.4 1006.4 0.2
20/04:00pm 32.5 34.1 23.2 58 6.5 SSE 20 28 11 15 1007.5 1006.5 0.2
20/03:30pm 32.3 34.4 24.1 62 5.7 SSE 20 28 11 15 1007.2 1006.2 0.2
20/03:00pm 32.8 33.7 21.6 51 7.6 S 19 26 10 14 1007.4 1006.4 0.2
20/02:30pm 33.6 35.8 23.9 57 6.8 SSW 19 26 10 14 1007.7 1006.7 0.2
20/02:00pm 33.1 36.1 21.9 51 7.7 SSW 9 15 5 8 1007.9 1006.9 0.2
20/01:30pm 32.9 36.5 22.4 54 7.2 SW 7 11 4 6 1007.7 1006.7 0.2
20/01:00pm 32.6 35.9 21.5 52 7.5 WSW 6 11 3 6 1008.0 1007.0 0.2
20/12:30pm 31.7 35.2 21.8 55 6.7 WSW 6 9 3 5 1008.3 1007.3 0.2
20/12:00pm 30.9 34.4 22.2 59 5.9 WSW 7 11 4 6 1008.7 1007.8 0.2
20/11:30am 29.8 33.5 23.3 68 4.5 W 9 13 5 7 1009.1 1008.2 0.2
20/11:00am 27.8 30.7 23.2 76 3.2 W 13 15 7 8 1010.0 1009.1 0.0
20/10:30am 26.6 29.2 23.3 82 2.3 WNW 15 19 8 10 1010.9 1010.0 0.0
20/10:00am 26.2 28.9 23.5 85 1.9 WNW 15 17 8 9 1012.0 1011.1 0.0
20/09:30am 25.7 27.5 23.2 86 1.7 W 19 22 10 12 1012.4 1011.5 0.0
20/09:00am 25.4 28.1 23.5 89 1.3 WSW 15 17 8 9 1012.7 1011.8 51.4
20/08:30am 25.1 28.8 23.9 93 0.8 SW 11 11 6 6 1012.9 1012.0 51.4
20/08:00am 24.6 28.5 23.6 94 0.7 WSW 9 11 5 6 1013.2 1012.3 50.8
20/07:30am 24.4 28.8 23.4 94 0.7 WSW 6 9 3 5 1013.0 1012.1 49.8
20/07:00am 24.2 29.3 23.3 95 0.6 SSW 2 6 1 3 1012.8 1011.9 48.6
20/06:30am 24.2 27.9 23.3 95 0.6 WNW 9 13 5 7 1012.8 1011.9 46.2
20/06:00am 23.8 27.6 22.8 94 0.7 N 7 11 4 6 1012.1 1011.2 43.6
20/05:30am 23.9 27.8 22.9 94 0.7 NNE 7 11 4 6 1012.1 1011.2 41.6
20/05:00am 23.6 26.2 22.6 94 0.7 NE 13 22 7 12 1011.5 1010.6 38.6
20/04:30am 24.2 26.4 23.2 94 0.7 ESE 17 26 9 14 1010.8 1009.9 17.2
20/04:00am 24.5 26.0 23.1 92 1.0 E 20 33 11 18 1009.8 1008.9 5.2
20/03:30am 26.2 23.3 21.6 76 3.1 E 39 72 21 39 1008.9 1008.0 0.0
20/03:26am 29.1 28.4 21.1 62 5.4 E 26 59 14 32 1008.3 1007.3 0.0
20/03:00am 29.7 35.9 24.6 74 3.6 CALM 0 0 0 0 1007.5 1006.5 0.0
20/02:30am 29.9 34.5 24.1 71 4.0 SW 7 9 4 5 1007.3 1006.3 0.0
20/02:00am 30.1 35.1 24.5 72 3.9 WSW 6 7 3 4 1007.6 1006.6 0.0
20/01:30am 30.3 35.2 24.7 72 3.9 SW 7 9 4 5 1007.9 1006.9 0.0
20/01:00am 30.4 35.2 24.5 70 4.1 SSW 7 9 4 5 1008.4 1007.5 0.0
20/12:30am 30.3 34.6 24.2 70 4.3 SW 9 9 5 5 1008.9 1008.0 0.0
20/12:00am 30.1 34.8 24.3 71 4.1 SSW 7 7 4 4 1009.2 1008.3 0.0
 
Date/Time
WST
Temp
°C
App
Temp
°C
Dew
Point
Rel
Hum
%
Delta-T
°C
Wind Press
QNH
hPa
Press
MSL
hPa
Rain
since 9 am
mm
Dir
 
Spd
km/h
Gust
km/h
Spd
kts
Gust
kts
19/11:30pm 30.6 33.8 23.0 64 5.2 S 11 15 6 8 1009.4 1008.5 0.0

Other Formats:

Comma delimited format used in spreadsheet applications
http://www.bom.gov.au/fwo/IDW60801/IDW60801.94206.axf

JavaScript Object Notation format (JSON) in row-major order
http://www.bom.gov.au/fwo/IDW60801/IDW60801.94206.json